createdAt,value
2017-06-06T00:01:39.479Z,90.2
2017-06-06T00:02:41.774Z,90.2
2017-06-06T00:03:44.570Z,90.2
2017-06-06T00:06:52.946Z,90.3
2017-06-06T00:07:55.751Z,90.3
2017-06-06T00:08:58.552Z,90.4
2017-06-06T00:10:01.357Z,90.5
2017-06-06T00:12:06.703Z,90.6
2017-06-06T00:13:09.577Z,90.6
2017-06-06T00:14:11.876Z,90.6
2017-06-06T00:15:14.677Z,90.6
2017-06-06T00:16:17.480Z,90.6
2017-06-06T00:17:20.534Z,90.7
2017-06-06T00:18:23.333Z,90.8
2017-06-06T00:19:25.635Z,90.8
2017-06-06T00:20:28.319Z,90.8
2017-06-06T00:21:31.119Z,90.8
2017-06-06T00:22:34.798Z,90.8
2017-06-06T00:23:36.672Z,90.8
2017-06-06T00:24:39.474Z,90.8
2017-06-06T00:25:42.272Z,90.8
2017-06-06T00:26:44.953Z,90.8
2017-06-06T00:27:48.011Z,90.8
2017-06-06T00:30:56.136Z,90.9
2017-06-06T00:33:01.600Z,90.9
2017-06-06T00:34:04.405Z,90.9
2017-06-06T00:38:15.739Z,90.8
2017-06-06T00:39:18.497Z,90.8
2017-06-06T00:40:20.790Z,90.8
2017-06-06T00:41:23.592Z,90.8
2017-06-06T00:42:26.399Z,90.8
2017-06-06T00:43:29.507Z,90.8
2017-06-06T00:44:31.818Z,90.8
2017-06-06T00:45:34.619Z,90.8
2017-06-06T00:46:37.427Z,90.7
2017-06-06T00:47:39.727Z,90.7
2017-06-06T00:48:42.832Z,90.6
2017-06-06T00:49:45.632Z,90.6
2017-06-06T00:50:47.936Z,90.6
2017-06-06T00:51:50.737Z,90.7
2017-06-06T00:52:53.699Z,90.7
2017-06-06T00:53:56.759Z,90.7
2017-06-06T00:54:59.055Z,90.6
2017-06-06T00:56:01.857Z,90.7
2017-06-06T00:58:07.453Z,90.8
2017-06-06T01:00:12.913Z,90.8
2017-06-06T01:01:15.710Z,90.9
2017-06-06T01:02:18.547Z,90.9
2017-06-06T01:03:20.839Z,91
2017-06-06T01:04:23.640Z,91
2017-06-06T01:05:26.691Z,91.1
2017-06-06T01:06:29.376Z,91.2
2017-06-06T01:07:32.182Z,91.1
2017-06-06T01:08:35.010Z,91.2
2017-06-06T01:09:37.304Z,91.2
2017-06-06T01:11:43.323Z,91.3
2017-06-06T01:13:48.297Z,91.4
2017-06-06T01:16:57.175Z,91.4
2017-06-06T01:17:59.354Z,91.4
2017-06-06T01:19:02.155Z,91.5
2017-06-06T01:20:04.883Z,91.5
2017-06-06T01:22:10.845Z,91.5
2017-06-06T01:23:13.032Z,91.5
2017-06-06T01:25:18.748Z,91.5
2017-06-06T01:28:27.133Z,91.4
2017-06-06T01:29:29.434Z,91.5
2017-06-06T01:30:32.117Z,91.4
2017-06-06T01:31:34.922Z,91.5
2017-06-06T01:33:40.960Z,91.4
2017-06-06T01:34:43.256Z,91.4
2017-06-06T01:35:45.931Z,91.5
2017-06-06T01:36:48.613Z,91.4
2017-06-06T01:37:51.413Z,91.4
2017-06-06T01:38:54.218Z,91.5
2017-06-06T01:39:57.021Z,91.5
2017-06-06T01:40:59.823Z,91.4
2017-06-06T01:42:02.624Z,91.4
2017-06-06T01:43:05.421Z,91.4
2017-06-06T01:44:07.629Z,91.4
2017-06-06T01:45:10.429Z,91.4
2017-06-06T01:46:13.242Z,91.5
2017-06-06T01:48:19.023Z,91.5
2017-06-06T01:49:21.825Z,91.5
2017-06-06T01:50:24.122Z,91.5
2017-06-06T01:52:29.596Z,91.4
2017-06-06T01:53:32.400Z,91.5
2017-06-06T01:54:35.079Z,91.5
2017-06-06T01:55:37.880Z,91.5
2017-06-06T01:56:40.682Z,91.5
2017-06-06T01:57:43.481Z,91.6
2017-06-06T01:58:46.367Z,91.5
2017-06-06T01:59:49.165Z,91.5
2017-06-06T02:00:51.462Z,91.5
2017-06-06T02:01:54.259Z,91.6
2017-06-06T02:02:57.054Z,91.6
2017-06-06T02:07:08.213Z,91.6
2017-06-06T02:09:13.811Z,91.7
2017-06-06T02:10:16.116Z,91.7
2017-06-06T02:11:18.913Z,91.7
2017-06-06T02:12:21.851Z,91.7
2017-06-06T02:13:24.535Z,91.7
2017-06-06T02:14:27.217Z,91.7
2017-06-06T02:15:30.092Z,91.7
2017-06-06T02:19:41.433Z,91.7
2017-06-06T02:20:43.611Z,91.8
2017-06-06T02:21:46.410Z,91.8
2017-06-06T02:23:51.499Z,92
2017-06-06T02:28:02.780Z,92
2017-06-06T02:29:05.616Z,92
2017-06-06T02:31:10.829Z,92.1
2017-06-06T02:32:13.634Z,92.1
2017-06-06T02:34:19.645Z,92.1
2017-06-06T02:37:27.261Z,92.1
2017-06-06T02:38:30.063Z,92.2
2017-06-06T02:39:33.119Z,92.2
2017-06-06T02:40:35.296Z,92.1
2017-06-06T02:41:38.094Z,92.2
2017-06-06T02:42:40.896Z,92.2
2017-06-06T02:43:43.695Z,92.2
2017-06-06T02:45:49.152Z,92.3
2017-06-06T02:46:51.953Z,92.3
2017-06-06T02:48:57.044Z,92.3
2017-06-06T02:49:59.845Z,92.3
2017-06-06T02:52:05.813Z,92.3
2017-06-06T02:54:10.910Z,92.2
2017-06-06T02:56:16.507Z,92.3
2017-06-06T02:57:19.615Z,92.3
2017-06-06T02:58:21.804Z,92.3
2017-06-06T02:59:24.612Z,92.3
2017-06-06T03:00:27.417Z,92.3
2017-06-06T03:01:30.057Z,92.2
2017-06-06T03:02:33.000Z,92.2
2017-06-06T03:03:35.300Z,92.2
2017-06-06T03:04:38.103Z,92.2
2017-06-06T03:05:40.931Z,92.2
2017-06-06T03:06:43.734Z,92.2
2017-06-06T03:07:46.841Z,92.2
2017-06-06T03:08:49.149Z,92.2
2017-06-06T03:10:54.361Z,92.2
2017-06-06T03:11:57.169Z,92.1
2017-06-06T03:13:00.227Z,92.1
2017-06-06T03:14:02.944Z,92.1
2017-06-06T03:15:05.639Z,92.1
2017-06-06T03:17:10.733Z,92.1
2017-06-06T03:18:13.838Z,92
2017-06-06T03:19:16.642Z,92
2017-06-06T03:22:24.768Z,91.9
2017-06-06T03:23:27.325Z,91.9
2017-06-06T03:24:30.007Z,91.9
2017-06-06T03:25:32.818Z,91.8
2017-06-06T03:26:35.503Z,91.8
2017-06-06T03:28:40.966Z,91.7
2017-06-06T03:29:43.769Z,91.7
2017-06-06T03:31:48.982Z,91.7
2017-06-06T03:32:51.810Z,91.6
2017-06-06T03:36:00.190Z,91.7
2017-06-06T03:37:02.565Z,91.7
2017-06-06T03:38:05.252Z,91.7
2017-06-06T03:39:08.056Z,91.7
2017-06-06T03:40:10.741Z,91.7
2017-06-06T03:41:13.852Z,91.7
2017-06-06T03:42:16.155Z,91.7
2017-06-06T03:43:18.965Z,91.6
2017-06-06T03:44:21.774Z,91.4
2017-06-06T03:45:24.580Z,91.4
2017-06-06T03:46:27.639Z,91.4
2017-06-06T03:47:29.940Z,91.2
2017-06-06T03:48:33.314Z,90.9
2017-06-06T03:50:38.027Z,90.7
2017-06-06T03:51:41.083Z,90.7
2017-06-06T03:52:43.888Z,90.6
2017-06-06T03:53:46.194Z,90.1
2017-06-06T03:54:48.995Z,89.9
2017-06-06T03:57:57.421Z,89.1
2017-06-06T04:00:02.639Z,89.6
2017-06-06T04:01:05.444Z,89.5
2017-06-06T04:02:08.127Z,89.4
2017-06-06T04:03:11.114Z,89.3
2017-06-06T04:04:13.991Z,88.8
2017-06-06T04:05:16.294Z,88.6
2017-06-06T04:08:25.230Z,88.2
2017-06-06T04:09:27.535Z,88.5
2017-06-06T04:10:30.338Z,88.4
2017-06-06T04:13:38.714Z,87.3
2017-06-06T04:15:43.934Z,87.6
2017-06-06T04:16:46.740Z,87.1
2017-06-06T04:17:49.425Z,86.7
2017-06-06T04:18:52.531Z,86.9
2017-06-06T04:19:54.831Z,86.7
2017-06-06T04:20:57.706Z,86.7
2017-06-06T04:22:00.514Z,86.2
2017-06-06T04:23:03.323Z,86.4
2017-06-06T04:24:06.377Z,86
2017-06-06T04:25:08.584Z,86
2017-06-06T04:28:17.091Z,84.4
2017-06-06T04:29:20.142Z,83.8
2017-06-06T04:30:22.324Z,83.6
2017-06-06T04:32:28.038Z,83
2017-06-06T04:33:30.841Z,82.3
2017-06-06T04:35:36.386Z,82
2017-06-06T04:36:39.116Z,81.3
2017-06-06T04:37:41.921Z,81.1
2017-06-06T04:38:44.604Z,81.1
2017-06-06T04:39:47.303Z,81.3
2017-06-06T04:40:50.370Z,80.3
2017-06-06T04:41:53.183Z,79.9
2017-06-06T04:42:55.987Z,79.9
2017-06-06T04:43:58.789Z,79.4
2017-06-06T04:45:01.594Z,79.1
2017-06-06T04:47:07.066Z,80.1
2017-06-06T04:48:09.872Z,80.8
2017-06-06T04:49:12.678Z,81.3
2017-06-06T04:51:17.896Z,82.3
2017-06-06T04:52:20.958Z,82.6
2017-06-06T04:55:29.090Z,83.4
2017-06-06T04:56:31.779Z,83.5
2017-06-06T04:57:34.769Z,83.8
2017-06-06T05:03:51.436Z,84.1
2017-06-06T05:04:54.240Z,84
2017-06-06T05:09:05.583Z,84.3
2017-06-06T05:10:07.889Z,84.4
2017-06-06T05:12:13.609Z,84.9
2017-06-06T05:13:15.911Z,84.5
2017-06-06T05:14:18.967Z,84.1
2017-06-06T05:15:21.768Z,84
2017-06-06T05:16:24.572Z,83.8
2017-06-06T05:17:26.828Z,83.8
2017-06-06T05:18:30.020Z,83.4
2017-06-06T05:19:32.957Z,83.6
2017-06-06T05:22:41.090Z,82
2017-06-06T05:23:43.895Z,80.9
2017-06-06T05:24:47.004Z,80.3
2017-06-06T05:25:49.302Z,79.8
2017-06-06T05:26:52.121Z,79
2017-06-06T05:27:54.922Z,78.9
2017-06-06T05:28:57.725Z,78.2
2017-06-06T05:30:01.358Z,78.1
2017-06-06T05:32:06.023Z,77.3
2017-06-06T05:33:08.706Z,76.9
2017-06-06T05:34:11.386Z,76.4
2017-06-06T05:37:20.317Z,76.3
2017-06-06T05:38:22.617Z,75.5
2017-06-06T05:39:25.417Z,74.7
2017-06-06T05:40:28.224Z,74.8
2017-06-06T05:41:31.031Z,74.8
2017-06-06T05:42:34.085Z,74.7
2017-06-06T05:48:51.141Z,71.6
2017-06-06T05:49:53.441Z,72.3
2017-06-06T05:50:56.255Z,71.1
2017-06-06T05:51:58.941Z,70.7
2017-06-06T05:53:02.245Z,70.4
2017-06-06T05:55:08.266Z,68.8
2017-06-06T05:56:10.571Z,68.5
2017-06-06T05:58:16.289Z,68.8
2017-06-06T05:59:18.856Z,68.8
2017-06-06T06:00:21.933Z,67.9
2017-06-06T06:01:24.742Z,68.6
2017-06-06T06:02:27.548Z,68.3
2017-06-06T06:03:30.239Z,67.3
2017-06-06T06:05:36.088Z,66.6
2017-06-06T06:06:38.894Z,66.6
2017-06-06T06:07:41.695Z,65.6
2017-06-06T06:08:44.383Z,66.1
2017-06-06T06:10:50.351Z,65.4
2017-06-06T06:11:53.163Z,66
2017-06-06T06:12:55.851Z,66.3
2017-06-06T06:13:58.652Z,65.3
2017-06-06T06:15:01.457Z,66.1
2017-06-06T06:16:04.568Z,65.8
2017-06-06T06:18:10.169Z,64.7
2017-06-06T06:19:12.977Z,64.3
2017-06-06T06:20:15.784Z,64.9
2017-06-06T06:22:21.759Z,63.9
2017-06-06T06:23:24.562Z,64
2017-06-06T06:24:27.370Z,65.3
2017-06-06T06:25:30.178Z,63.6
2017-06-06T06:26:32.982Z,62.9
2017-06-06T06:27:36.092Z,63.5
2017-06-06T06:28:38.900Z,62.4
2017-06-06T06:29:41.586Z,61.2
2017-06-06T06:30:44.391Z,59.7
2017-06-06T06:31:47.195Z,60.9
2017-06-06T06:33:53.212Z,62.1
2017-06-06T06:34:55.898Z,61.1
2017-06-06T06:37:01.618Z,61.7
2017-06-06T06:38:04.431Z,60.8
2017-06-06T06:39:08.024Z,61.3
2017-06-06T06:41:13.239Z,59.5
2017-06-06T06:43:18.954Z,59.1
2017-06-06T06:45:24.923Z,60
2017-06-06T06:46:27.484Z,58.7
2017-06-06T06:54:50.976Z,55.9
2017-06-06T06:56:56.700Z,57
2017-06-06T06:59:02.418Z,55.5
2017-06-06T07:03:14.212Z,55.8
2017-06-06T07:04:17.016Z,56.1
2017-06-06T07:05:19.818Z,55.1
2017-06-06T07:06:22.625Z,55.2
2017-06-06T07:07:25.308Z,54.4
2017-06-06T07:08:28.869Z,54.9
2017-06-06T07:11:36.996Z,54.3
2017-06-06T07:12:39.800Z,54.5
2017-06-06T07:13:43.243Z,53.7
2017-06-06T07:14:45.544Z,55.4
2017-06-06T07:15:48.855Z,53.7
2017-06-06T07:17:54.569Z,54
2017-06-06T07:18:57.625Z,54.8
2017-06-06T07:20:00.429Z,54.7
2017-06-06T07:21:03.234Z,54.7
2017-06-06T07:22:06.043Z,55.1
2017-06-06T07:23:08.732Z,54.7
2017-06-06T07:24:12.296Z,53.5
2017-06-06T07:25:14.601Z,54.4
2017-06-06T07:26:17.917Z,54.8
2017-06-06T07:27:20.668Z,52.7
2017-06-06T07:28:23.495Z,52.4
2017-06-06T07:29:26.604Z,52.1
2017-06-06T07:30:29.419Z,52.3
2017-06-06T07:31:32.223Z,52.6
2017-06-06T07:32:34.907Z,53.1
2017-06-06T07:34:41.382Z,54.9
2017-06-06T07:35:43.686Z,53.1
2017-06-06T07:37:49.921Z,52.8
2017-06-06T07:38:52.724Z,53.2
2017-06-06T07:39:55.713Z,52.4
2017-06-06T07:40:58.521Z,51.8
2017-06-06T07:42:01.218Z,52.1
2017-06-06T07:43:04.033Z,52
2017-06-06T07:44:07.342Z,52.5
2017-06-06T07:45:10.325Z,52.4
2017-06-06T07:46:13.133Z,52
2017-06-06T07:47:15.939Z,52.7
2017-06-06T07:49:21.656Z,53
2017-06-06T07:50:24.711Z,52.4
2017-06-06T07:53:33.343Z,51.9
2017-06-06T07:54:36.032Z,51.4
2017-06-06T07:55:39.591Z,50.5
2017-06-06T07:56:42.277Z,49.3
2017-06-06T07:57:45.079Z,50.4
2017-06-06T07:58:47.880Z,49.7
2017-06-06T07:59:50.690Z,48.9
2017-06-06T08:01:57.045Z,49.1
2017-06-06T08:02:59.849Z,49.8
2017-06-06T08:05:05.590Z,48.4
2017-06-06T08:06:08.398Z,48.1
2017-06-06T08:09:17.850Z,48.8
2017-06-06T08:10:20.158Z,48.6
2017-06-06T08:12:25.755Z,48.8
2017-06-06T08:13:29.092Z,47.3
2017-06-06T08:14:31.909Z,47.2
2017-06-06T08:15:34.713Z,47.7
2017-06-06T08:16:37.516Z,47.5
2017-06-06T08:17:40.318Z,47
2017-06-06T08:18:43.623Z,46.2
2017-06-06T08:19:46.694Z,47.2
2017-06-06T08:20:49.506Z,46.8
2017-06-06T08:26:04.220Z,47.7
2017-06-06T08:27:07.025Z,48.4
2017-06-06T08:29:12.739Z,47.1
2017-06-06T08:30:15.556Z,46.4
2017-06-06T08:31:18.877Z,47.7
2017-06-06T08:32:21.681Z,45.8
2017-06-06T08:33:24.488Z,47.1
2017-06-06T08:34:27.171Z,46.4
2017-06-06T08:35:30.487Z,46.8
2017-06-06T08:36:33.546Z,46.1
2017-06-06T08:37:36.350Z,47
2017-06-06T08:38:39.036Z,47.4
2017-06-06T08:39:42.221Z,45.9
2017-06-06T08:40:44.924Z,45.3
2017-06-06T08:41:48.410Z,44.3
2017-06-06T08:44:56.921Z,46.2
2017-06-06T08:45:59.735Z,45.8
2017-06-06T08:47:03.175Z,46.3
2017-06-06T08:49:08.389Z,46.1
2017-06-06T08:52:17.732Z,45
2017-06-06T08:54:23.450Z,46.3
2017-06-06T08:55:26.516Z,46.7
2017-06-06T08:56:29.321Z,46.8
2017-06-06T08:57:32.259Z,47
2017-06-06T08:59:37.975Z,45.9
2017-06-06T09:00:40.782Z,47.7
2017-06-06T09:01:44.092Z,46.7
2017-06-06T09:02:47.198Z,47.2
2017-06-06T09:03:49.880Z,46.3
2017-06-06T09:04:53.067Z,46.9
2017-06-06T09:05:55.751Z,47.6
2017-06-06T09:09:04.643Z,46.9
2017-06-06T09:10:07.458Z,47
2017-06-06T09:11:10.770Z,47.8
2017-06-06T09:12:13.585Z,46.2
2017-06-06T09:13:16.390Z,46.4
2017-06-06T09:14:19.445Z,46.5
2017-06-06T09:15:22.006Z,47.1
2017-06-06T09:16:25.319Z,47.6
2017-06-06T09:17:28.122Z,47
2017-06-06T09:19:34.473Z,48.5
2017-06-06T09:20:37.278Z,48.2
2017-06-06T09:21:40.158Z,48.6
2017-06-06T09:22:42.964Z,47.7
2017-06-06T09:23:46.034Z,48.4
2017-06-06T09:24:48.971Z,46.9
2017-06-06T09:25:52.161Z,47.5
2017-06-06T09:26:54.965Z,46.2
2017-06-06T09:27:57.662Z,46.8
2017-06-06T09:29:00.970Z,46.8
2017-06-06T09:32:09.795Z,46.5
2017-06-06T09:33:12.604Z,46.6
2017-06-06T09:34:15.793Z,46.6
2017-06-06T09:35:18.599Z,46.5
2017-06-06T09:36:21.398Z,46.4
2017-06-06T09:37:25.043Z,47.3
2017-06-06T09:39:30.761Z,46.5
2017-06-06T09:40:34.018Z,46.8
2017-06-06T09:41:36.314Z,46.7
2017-06-06T09:42:39.874Z,47.4
2017-06-06T09:43:42.681Z,46.5
2017-06-06T09:44:45.376Z,46
2017-06-06T09:46:51.596Z,44.8
2017-06-06T09:47:54.531Z,44.5
2017-06-06T09:48:57.334Z,45.2
2017-06-06T09:50:00.526Z,46
2017-06-06T09:52:06.247Z,45.8
2017-06-06T09:54:12.764Z,45.6
2017-06-06T09:55:15.575Z,46.2
2017-06-06T09:56:18.383Z,44.9
2017-06-06T09:58:24.492Z,46
2017-06-06T09:59:27.545Z,46
2017-06-06T10:00:30.353Z,47.3
2017-06-06T10:01:33.165Z,45.6
2017-06-06T10:03:39.269Z,46.7
2017-06-06T10:04:42.831Z,45.8
2017-06-06T10:05:45.637Z,46
2017-06-06T10:06:48.318Z,47
2017-06-06T10:08:54.423Z,47.6
2017-06-06T10:09:57.993Z,48.8
2017-06-06T10:13:06.631Z,48
2017-06-06T10:14:09.437Z,48.5
2017-06-06T10:15:13.046Z,48.3
2017-06-06T10:17:18.762Z,49
2017-06-06T10:18:21.564Z,49.2
2017-06-06T10:20:28.042Z,49.2
2017-06-06T10:21:30.734Z,49.6
2017-06-06T10:23:36.457Z,49.9
2017-06-06T10:26:45.847Z,49.1
2017-06-06T10:28:51.334Z,48.3
2017-06-06T10:30:57.054Z,47.4
2017-06-06T10:33:03.533Z,46.9
2017-06-06T10:35:09.250Z,48.1
2017-06-06T10:36:12.072Z,47.9
2017-06-06T10:37:14.876Z,48.5
2017-06-06T10:38:18.489Z,48.3
2017-06-06T10:39:20.791Z,48.3
2017-06-06T10:40:23.979Z,48.1
2017-06-06T10:42:29.579Z,47.5
2017-06-06T10:45:39.018Z,49
2017-06-06T10:47:44.733Z,47.3
2017-06-06T10:48:47.417Z,48.3
2017-06-06T10:49:50.217Z,48.3
2017-06-06T10:50:53.713Z,47.5
2017-06-06T10:51:56.399Z,47.6
2017-06-06T10:54:02.116Z,47.9
2017-06-06T10:55:04.926Z,48.1
2017-06-06T10:56:08.370Z,48.4
2017-06-06T10:57:11.174Z,48.6
2017-06-06T11:00:19.689Z,47.7
2017-06-06T11:01:22.890Z,48.6
2017-06-06T11:03:28.873Z,46.4
2017-06-06T11:05:34.591Z,46.6
2017-06-06T11:07:40.441Z,47
2017-06-06T11:08:43.248Z,47.4
2017-06-06T11:09:46.553Z,48
2017-06-06T11:10:49.357Z,47.4
2017-06-06T11:11:52.047Z,47.5
2017-06-06T11:12:55.613Z,47.7
2017-06-06T11:13:57.917Z,48
2017-06-06T11:15:01.228Z,47.7
2017-06-06T11:16:04.039Z,47.8
2017-06-06T11:18:10.582Z,46.7
2017-06-06T11:19:12.884Z,47.9
2017-06-06T11:21:18.479Z,48.6
2017-06-06T11:22:21.787Z,48.2
2017-06-06T11:23:24.854Z,48.3
2017-06-06T11:24:27.664Z,47.9
2017-06-06T11:25:30.471Z,47
2017-06-06T11:26:33.282Z,47.6
2017-06-06T11:29:42.548Z,48.2
2017-06-06T11:31:48.339Z,47.7
2017-06-06T11:34:57.278Z,47.4
2017-06-06T11:37:03.001Z,47.5
2017-06-06T11:38:05.684Z,48.4
2017-06-06T11:39:08.411Z,48.1
2017-06-06T11:40:12.021Z,48.5
2017-06-06T11:42:17.736Z,48.5
2017-06-06T11:43:20.545Z,48.7
2017-06-06T11:44:23.353Z,48.7
2017-06-06T11:47:32.742Z,48.5
2017-06-06T11:49:38.172Z,46.5
2017-06-06T11:50:40.973Z,47.4
2017-06-06T11:53:50.416Z,46.7
2017-06-06T11:54:52.718Z,47.2
2017-06-06T11:55:55.906Z,47
2017-06-06T11:58:01.625Z,47
2017-06-06T11:59:05.233Z,45.3
2017-06-06T12:00:07.412Z,45
2017-06-06T12:02:13.394Z,46.1
2017-06-06T12:03:16.728Z,45.2
2017-06-06T12:06:25.550Z,44.7
2017-06-06T12:07:28.380Z,45
2017-06-06T12:10:37.398Z,45.1
2017-06-06T12:12:43.419Z,45.2
2017-06-06T12:13:46.221Z,44.8
2017-06-06T12:14:49.027Z,44.4
2017-06-06T12:15:51.832Z,45.5
2017-06-06T12:16:55.142Z,45.7
2017-06-06T12:17:58.355Z,45
2017-06-06T12:20:04.077Z,45.6
2017-06-06T12:21:06.762Z,45.5
2017-06-06T12:22:09.445Z,45.9
2017-06-06T12:23:12.935Z,46.5
2017-06-06T12:24:15.744Z,46.5
2017-06-06T12:25:18.551Z,45.9
2017-06-06T12:26:21.374Z,45.8
2017-06-06T12:27:24.681Z,45.5
2017-06-06T12:28:27.790Z,45.8
2017-06-06T12:29:30.593Z,46.3
2017-06-06T12:30:33.156Z,45.7
2017-06-06T12:31:36.466Z,44.8
2017-06-06T12:32:39.278Z,45.2
2017-06-06T12:33:42.212Z,45.3
2017-06-06T12:34:44.902Z,45.4
2017-06-06T12:35:47.986Z,45.4
2017-06-06T12:36:51.296Z,45.9
2017-06-06T12:37:53.984Z,45.3
2017-06-06T12:38:56.969Z,43.9
2017-06-06T12:40:00.157Z,44.6
2017-06-06T12:42:05.753Z,45.6
2017-06-06T12:43:08.822Z,46.2
2017-06-06T12:44:12.264Z,46.3
2017-06-06T12:45:14.951Z,46.5
2017-06-06T12:46:17.631Z,44.5
2017-06-06T12:47:20.938Z,46.1
2017-06-06T12:48:23.622Z,45
2017-06-06T12:49:26.675Z,44.2
2017-06-06T12:52:35.301Z,44.8
2017-06-06T12:54:41.774Z,44.8
2017-06-06T12:55:44.082Z,45.7
2017-06-06T12:56:47.396Z,45.8
2017-06-06T12:57:50.204Z,46.3
2017-06-06T12:58:53.008Z,46.1
2017-06-06T12:59:56.280Z,45.5
2017-06-06T13:00:59.085Z,47.3
2017-06-06T13:02:01.890Z,46.3
2017-06-06T13:04:07.989Z,47.2
2017-06-06T13:05:11.050Z,47.3
2017-06-06T13:06:13.855Z,48
2017-06-06T13:07:16.663Z,48.1
2017-06-06T13:08:19.973Z,49
2017-06-06T13:09:22.775Z,49
2017-06-06T13:11:28.746Z,49.1
2017-06-06T13:13:34.470Z,50.3
2017-06-06T13:14:37.273Z,49
2017-06-06T13:15:40.585Z,49.6
2017-06-06T13:17:46.554Z,50.6
2017-06-06T13:19:52.275Z,50.9
2017-06-06T13:20:55.030Z,49.7
2017-06-06T13:23:01.003Z,49.2
2017-06-06T13:24:03.813Z,49
2017-06-06T13:25:06.885Z,49
2017-06-06T13:26:09.957Z,49.6
2017-06-06T13:27:12.762Z,49.3
2017-06-06T13:28:15.833Z,49.5
2017-06-06T13:31:24.470Z,49.6
2017-06-06T13:32:27.276Z,49.4
2017-06-06T13:35:36.663Z,49.1
2017-06-06T13:36:38.845Z,49.5
2017-06-06T13:37:42.155Z,49.2
2017-06-06T13:38:44.970Z,49.6
2017-06-06T13:39:47.778Z,49.7
2017-06-06T13:40:51.343Z,49.6
2017-06-06T13:42:56.560Z,49.6
2017-06-06T13:43:59.437Z,49.8
2017-06-06T13:46:05.726Z,50.8
2017-06-06T13:47:08.535Z,51
2017-06-06T13:49:14.250Z,51.7
2017-06-06T13:50:17.055Z,51
2017-06-06T13:53:26.446Z,51.4
2017-06-06T13:54:28.760Z,51.8
2017-06-06T13:56:34.978Z,51.3
2017-06-06T13:57:37.663Z,51.5
2017-06-06T13:58:41.218Z,51.5
2017-06-06T13:59:43.400Z,51.5
2017-06-06T14:00:46.716Z,52.2
2017-06-06T14:01:49.520Z,51.9
2017-06-06T14:02:52.328Z,52.3
2017-06-06T14:03:55.765Z,52.1
2017-06-06T14:06:00.982Z,53.1
2017-06-06T14:07:04.297Z,52.2
2017-06-06T14:08:07.104Z,52.1
2017-06-06T14:09:10.159Z,53
2017-06-06T14:10:12.993Z,54
2017-06-06T14:11:15.800Z,54.7
2017-06-06T14:12:18.603Z,54.8
2017-06-06T14:13:22.490Z,55.5
2017-06-06T14:14:25.042Z,55.6
2017-06-06T14:16:30.254Z,56
2017-06-06T14:18:36.478Z,57.4
2017-06-06T14:19:39.596Z,59.5
2017-06-06T14:20:42.287Z,59.3
2017-06-06T14:21:45.096Z,61.1
2017-06-06T14:23:50.819Z,61.6
2017-06-06T14:25:56.725Z,63.2
2017-06-06T14:26:59.529Z,64.7
2017-06-06T14:28:02.218Z,67.2
2017-06-06T14:29:05.528Z,67.2
2017-06-06T14:30:08.219Z,68.4
2017-06-06T14:31:11.088Z,69.7
2017-06-06T14:32:13.657Z,68.3
2017-06-06T14:33:17.546Z,69
2017-06-06T14:36:26.386Z,68.2
2017-06-06T14:37:28.189Z,69
2017-06-06T14:38:31.503Z,69.2
2017-06-06T14:39:34.193Z,69
2017-06-06T14:40:37.000Z,69.2
2017-06-06T14:41:40.057Z,68.1
2017-06-06T14:42:42.865Z,68.2
2017-06-06T14:43:45.670Z,68.9
2017-06-06T14:44:48.474Z,69.3
2017-06-06T14:47:57.376Z,72.4
2017-06-06T14:49:00.084Z,72.3
2017-06-06T14:52:08.791Z,71.8
2017-06-06T14:53:11.548Z,75.2
2017-06-06T14:55:17.110Z,79.5
2017-06-06T14:59:29.368Z,81.7
2017-06-06T15:00:31.431Z,80.2
2017-06-06T15:01:34.502Z,80.6
2017-06-06T15:02:37.143Z,79.4
2017-06-06T15:03:39.959Z,81.5
2017-06-06T15:04:43.575Z,81
2017-06-06T15:08:54.177Z,82.5
2017-06-06T15:11:00.451Z,83.3
2017-06-06T15:12:02.906Z,83.7
2017-06-06T15:13:05.875Z,83.6
2017-06-06T15:14:08.437Z,83.6
2017-06-06T15:15:11.502Z,82.3
2017-06-06T15:16:14.351Z,83.7
2017-06-06T15:17:17.199Z,83.1
2017-06-06T15:18:20.058Z,83.5
2017-06-06T15:19:22.652Z,82.7
2017-06-06T15:20:25.553Z,83.2
2017-06-06T15:21:28.467Z,84.2
2017-06-06T15:22:31.291Z,83.9
2017-06-06T15:23:34.303Z,84.3
2017-06-06T15:24:36.998Z,84.2
2017-06-06T15:25:40.108Z,84.5
2017-06-06T15:27:46.053Z,83.9
2017-06-06T15:28:48.321Z,81.2
2017-06-06T15:29:51.398Z,82.1
2017-06-06T15:30:54.210Z,82.9
2017-06-06T15:31:57.133Z,82.6
2017-06-06T15:33:00.104Z,81.5
2017-06-06T15:34:02.468Z,82.5
2017-06-06T15:35:05.312Z,83
2017-06-06T15:36:08.403Z,82.5
2017-06-06T15:37:10.995Z,82.2
2017-06-06T15:38:14.366Z,80.9
2017-06-06T15:39:16.668Z,80.4
2017-06-06T15:40:19.490Z,80.3
2017-06-06T15:41:22.551Z,81
2017-06-06T15:42:25.242Z,80.3
2017-06-06T15:43:28.622Z,81.2
2017-06-06T15:44:31.186Z,81.2
2017-06-06T15:45:33.635Z,82.2
2017-06-06T15:47:39.615Z,82.8
2017-06-06T15:48:42.405Z,82.3
2017-06-06T15:49:45.937Z,82.9
2017-06-06T15:50:47.823Z,82.5
2017-06-06T15:53:56.910Z,82.1
2017-06-06T15:57:05.415Z,79
2017-06-06T16:01:16.781Z,77
2017-06-06T16:02:19.683Z,76.6
2017-06-06T16:03:22.340Z,77.4
2017-06-06T16:04:25.016Z,77.9
2017-06-06T16:05:27.783Z,77.3
2017-06-06T16:06:31.056Z,76.7
2017-06-06T16:07:33.363Z,75.9
2017-06-06T16:08:36.517Z,75.7
2017-06-06T16:10:41.802Z,76.5
2017-06-06T16:11:45.101Z,77
2017-06-06T16:13:51.115Z,75.8
2017-06-06T16:14:53.500Z,76
2017-06-06T16:16:59.127Z,74.4
2017-06-06T16:19:04.866Z,75.1
2017-06-06T16:20:07.547Z,74.8
2017-06-06T16:21:10.535Z,74.6
2017-06-06T16:22:13.700Z,74.3
2017-06-06T16:24:19.120Z,75.1
2017-06-06T16:25:21.520Z,74
2017-06-06T16:26:24.820Z,76
2017-06-06T16:27:27.604Z,75
2017-06-06T16:29:33.269Z,75.8
2017-06-06T16:31:38.787Z,73.8
2017-06-06T16:33:44.931Z,72.5
2017-06-06T16:34:47.459Z,72.5
2017-06-06T19:53:40.798Z,84.5
2017-06-06T19:54:43.185Z,84.7
2017-06-06T19:55:45.956Z,84.3
2017-06-06T19:56:48.852Z,84.3
2017-06-06T19:57:51.750Z,84.9
2017-06-06T19:58:54.317Z,85.6
2017-06-06T19:59:57.206Z,84.7
2017-06-06T20:01:00.096Z,84.9
2017-06-06T20:03:05.400Z,85
2017-06-06T20:04:08.424Z,84.6
2017-06-06T20:06:13.674Z,84.7
2017-06-06T20:09:22.517Z,84.5
2017-06-06T20:11:27.673Z,83.9
2017-06-06T20:12:30.518Z,84.1
2017-06-06T20:14:36.375Z,83.7
2017-06-06T20:15:38.639Z,84.3
2017-06-06T20:16:41.685Z,83.5
2017-06-06T20:18:47.120Z,84
2017-06-06T20:19:50.326Z,84.1
2017-06-06T20:20:52.631Z,83.7
2017-06-06T20:21:55.624Z,84
2017-06-06T20:22:58.043Z,84.2
2017-06-06T20:25:03.907Z,84.2
2017-06-06T20:26:06.555Z,84.9
2017-06-06T20:27:09.788Z,84.1
2017-06-06T20:28:12.143Z,84.6
2017-06-06T20:29:14.912Z,84
2017-06-06T20:32:23.088Z,84.8
2017-06-06T20:33:26.050Z,84.1
2017-06-06T20:36:34.054Z,84.9
2017-06-06T20:37:37.218Z,85.1
2017-06-06T20:38:39.612Z,84.8
2017-06-06T20:40:45.379Z,84.9
2017-06-06T20:41:48.272Z,84.8
2017-06-06T20:43:53.879Z,84.7
2017-06-06T20:44:56.269Z,84.9
2017-06-06T20:45:59.164Z,84.2
2017-06-06T20:47:02.060Z,84.3
2017-06-06T20:48:04.453Z,84.5
2017-06-06T20:49:07.487Z,84.1
2017-06-06T20:50:10.145Z,84.8
2017-06-06T20:51:13.043Z,83.9
2017-06-06T20:52:15.942Z,84.4
2017-06-06T20:53:18.722Z,84.4
2017-06-06T20:54:21.413Z,84.1
2017-06-06T20:55:23.800Z,84.3
2017-06-06T20:56:26.695Z,83.6
2017-06-06T20:57:29.591Z,83.1
2017-06-06T20:58:32.490Z,82.9
2017-06-06T20:59:35.136Z,83.7
2017-06-06T21:00:38.034Z,83.5
2017-06-06T21:01:40.811Z,83
2017-06-06T21:02:43.201Z,83.4
2017-06-06T21:03:46.190Z,83.1
2017-06-06T21:05:51.797Z,82.6
2017-06-06T21:06:54.698Z,82.8
2017-06-06T21:07:57.476Z,83.1
2017-06-06T21:08:59.866Z,82.5
2017-06-06T21:11:05.969Z,82.4
2017-06-06T21:13:11.275Z,81.7
2017-06-06T21:15:16.580Z,81.7
2017-06-06T21:18:25.051Z,81.9
2017-06-06T21:20:30.359Z,81.7
2017-06-06T21:21:33.257Z,82.3
2017-06-06T21:22:36.152Z,81.8
2017-06-06T21:23:38.724Z,81.5
2017-06-06T21:24:41.624Z,81.7
2017-06-06T21:27:49.846Z,81
2017-06-06T21:28:52.990Z,81
2017-06-06T21:29:55.384Z,80.7
2017-06-06T21:30:58.277Z,80.8
2017-06-06T21:34:06.749Z,80.2
2017-06-06T21:35:08.906Z,78.2
2017-06-06T21:36:11.695Z,79.7
2017-06-06T21:37:14.594Z,78.5
2017-06-06T21:38:17.489Z,78.3
2017-06-06T21:39:20.681Z,77.7
2017-06-06T21:41:25.485Z,78.2
2017-06-06T21:42:28.379Z,77.1
2017-06-06T21:43:31.276Z,78.2
2017-06-06T21:44:34.427Z,76.5
2017-06-06T21:45:36.820Z,77.3
2017-06-06T21:46:39.717Z,77.3
2017-06-06T21:47:42.110Z,77.3
2017-06-06T21:48:45.004Z,76.6
2017-06-06T21:50:51.069Z,75
2017-06-06T21:51:53.475Z,75
2017-06-06T21:52:56.367Z,75.2
2017-06-06T21:53:58.756Z,75.4
2017-06-06T21:55:01.648Z,76
2017-06-06T21:56:04.844Z,75.3
2017-06-06T21:57:07.244Z,73.3
2017-06-06T21:58:10.017Z,73
2017-06-06T22:00:15.328Z,74.8
2017-06-06T22:01:18.473Z,73.9
2017-06-06T22:02:20.863Z,73.3
2017-06-06T22:05:29.097Z,73.2
2017-06-06T22:06:32.126Z,71.3
2017-06-06T22:09:40.336Z,72.7
2017-06-06T22:10:43.109Z,71
2017-06-06T22:11:46.263Z,71.1